createdAt,value
2022-12-20T00:19:15.852Z,78.57
2022-12-20T00:20:16.794Z,78.61
2022-12-20T00:21:15.771Z,78.61
2022-12-20T00:22:15.917Z,79.02
2022-12-20T00:23:15.668Z,78.4
2022-12-20T00:24:15.668Z,79.47
2022-12-20T00:25:15.635Z,79.47
2022-12-20T00:26:15.609Z,79.02
2022-12-20T00:27:15.602Z,79.02
2022-12-20T00:28:15.610Z,78.92
2022-12-20T00:29:15.576Z,79.47
2022-12-20T00:30:15.572Z,79.57
2022-12-20T00:31:15.558Z,79.33
2022-12-20T00:32:22.316Z,79.22
2022-12-20T00:33:15.567Z,78.96
2022-12-20T00:34:15.553Z,79.81
2022-12-20T00:35:15.542Z,80.53
2022-12-20T00:36:15.519Z,80.8
2022-12-20T00:37:15.502Z,80.29
2022-12-20T00:38:15.528Z,79.47
2022-12-20T00:39:16.528Z,79.47
2022-12-20T00:40:15.482Z,80.02
2022-12-20T00:41:15.469Z,80.57
2022-12-20T00:42:15.448Z,81.39
2022-12-20T00:43:15.446Z,81.05
2022-12-20T00:44:15.543Z,80.43
2022-12-20T00:45:15.441Z,80.84
2022-12-20T00:46:15.413Z,80.94
2022-12-20T00:47:15.417Z,80.29
2022-12-20T00:48:15.405Z,79.98
2022-12-20T00:49:15.370Z,79.88
2022-12-20T00:50:15.396Z,79.71
2022-12-20T00:51:15.351Z,80.49
2022-12-20T00:52:15.361Z,79.5
2022-12-20T00:53:15.525Z,80.47
2022-12-20T00:54:15.321Z,81.19
2022-12-20T00:55:15.317Z,80.74
2022-12-20T00:56:15.342Z,80.74
2022-12-20T00:57:16.289Z,80.08
2022-12-20T00:58:15.278Z,80.77
2022-12-20T00:59:15.277Z,80.53
2022-12-20T01:00:15.282Z,80.33
2022-12-20T01:01:15.255Z,80.22
2022-12-20T01:02:15.409Z,81.05
2022-12-20T01:03:15.236Z,80.19
2022-12-20T01:04:15.291Z,79.67
2022-12-20T01:05:15.242Z,79.36
2022-12-20T01:06:15.209Z,79.77
2022-12-20T01:07:15.182Z,80.33
2022-12-20T01:08:15.171Z,81.15
2022-12-20T01:09:15.203Z,80.19
2022-12-20T01:10:15.168Z,80.8
2022-12-20T01:11:15.181Z,80.53
2022-12-20T01:12:15.127Z,80.91
2022-12-20T01:13:15.260Z,79.88
2022-12-20T01:14:16.451Z,80.33
2022-12-20T01:15:15.105Z,80.39
2022-12-20T01:16:15.112Z,80.22
2022-12-20T01:17:15.135Z,80.6
2022-12-20T01:18:15.098Z,80.8
2022-12-20T01:19:15.058Z,80.19
2022-12-20T01:20:15.076Z,80.39
2022-12-20T01:21:15.151Z,80.6
2022-12-20T01:22:15.020Z,80.6
2022-12-20T01:23:15.177Z,80.35
2022-12-20T01:24:15.226Z,79.63
2022-12-20T01:25:15.079Z,80.19
2022-12-20T01:26:14.986Z,80.87
2022-12-20T01:27:14.999Z,79.94
2022-12-20T01:28:14.993Z,79.74
2022-12-20T01:29:14.964Z,80.05
2022-12-20T01:30:14.969Z,80.49
2022-12-20T01:31:15.080Z,81.11
2022-12-20T01:32:14.954Z,80.97
2022-12-20T01:33:14.941Z,80.49
2022-12-20T01:34:14.890Z,81.11
2022-12-20T01:35:14.883Z,81.52
2022-12-20T01:36:14.910Z,81.18
2022-12-20T01:37:14.866Z,80.77
2022-12-20T01:38:14.857Z,80.66
2022-12-20T01:39:14.935Z,80.87
2022-12-20T01:40:14.866Z,80.56
2022-12-20T01:41:14.829Z,81.18
2022-12-20T01:42:14.807Z,80.42
2022-12-20T01:43:14.798Z,79.91
2022-12-20T01:44:14.817Z,80.52
2022-12-20T01:45:14.806Z,80.01
2022-12-20T01:46:14.811Z,80.11
2022-12-20T01:47:14.761Z,79.7
2022-12-20T01:48:14.761Z,79.91
2022-12-20T01:49:14.732Z,79.91
2022-12-20T01:50:14.774Z,79.66
2022-12-20T01:51:14.772Z,79.25
2022-12-20T01:52:14.712Z,79.8
2022-12-20T01:53:14.696Z,79.25
2022-12-20T01:54:14.764Z,79.49
2022-12-20T01:55:14.673Z,79.8
2022-12-20T01:56:14.655Z,79.29
2022-12-20T01:57:14.663Z,79.6
2022-12-20T01:58:14.641Z,79.6
2022-12-20T01:59:14.762Z,79.36
2022-12-20T02:00:14.892Z,79.05
2022-12-20T02:01:14.610Z,78.12
2022-12-20T02:02:14.664Z,79.19
2022-12-20T02:03:14.583Z,79.08
2022-12-20T02:04:14.607Z,78.98
2022-12-20T02:05:14.579Z,79.12
2022-12-20T02:06:14.563Z,80.46
2022-12-20T02:07:14.540Z,80.11
2022-12-20T02:08:14.549Z,79.49
2022-12-20T02:09:14.538Z,79.33
2022-12-20T02:10:14.506Z,80.05
2022-12-20T02:11:14.521Z,80.39
2022-12-20T02:12:14.505Z,80.66
2022-12-20T02:13:14.722Z,80.32
2022-12-20T02:14:14.496Z,78.78
2022-12-20T02:15:14.543Z,79.22
2022-12-20T02:16:14.508Z,80.05
2022-12-20T02:17:14.469Z,79.19
2022-12-20T02:18:14.506Z,79.08
2022-12-20T02:19:14.432Z,79.29
2022-12-20T02:20:14.401Z,79.63
2022-12-20T02:21:14.544Z,80.15
2022-12-20T02:22:14.406Z,79.33
2022-12-20T02:23:14.386Z,79.74
2022-12-20T02:24:14.492Z,79.53
2022-12-20T02:25:14.366Z,80.25
2022-12-20T02:26:14.404Z,79.63
2022-12-20T02:27:14.356Z,80.46
2022-12-20T02:28:14.409Z,80.05
2022-12-20T02:29:14.324Z,80.15
2022-12-20T02:30:14.317Z,79.7
2022-12-20T02:31:14.334Z,79.53
2022-12-20T02:32:14.459Z,80.29
2022-12-20T02:33:14.295Z,80.8
2022-12-20T02:34:14.346Z,80.35
2022-12-20T02:35:14.248Z,80.15
2022-12-20T02:36:14.274Z,79.63
2022-12-20T02:37:14.220Z,80.19
2022-12-20T02:38:14.218Z,80.91
2022-12-20T02:39:14.258Z,80.52
2022-12-20T02:40:14.192Z,79.74
2022-12-20T02:41:14.186Z,80.39
2022-12-20T02:42:14.198Z,80.39
2022-12-20T02:43:14.209Z,80.84
2022-12-20T02:44:14.183Z,81.83
2022-12-20T02:45:14.148Z,81.62
2022-12-20T02:46:14.125Z,81.73
2022-12-20T02:47:14.115Z,80.93
2022-12-20T02:48:14.100Z,79.91
2022-12-20T02:49:14.166Z,79.49
2022-12-20T02:50:14.088Z,79.39
2022-12-20T02:51:14.076Z,78.57
2022-12-20T02:52:14.085Z,79.63
2022-12-20T02:53:14.068Z,80.77
2022-12-20T02:54:14.064Z,80.32
2022-12-20T02:55:14.143Z,79.8
2022-12-20T02:56:14.098Z,79.29
2022-12-20T02:57:14.012Z,79.29
2022-12-20T02:58:14.013Z,79.53
2022-12-20T02:59:14.004Z,80.6
2022-12-20T03:00:14.045Z,81.11
2022-12-20T03:01:14.024Z,80.97
2022-12-20T03:02:13.957Z,80.35
2022-12-20T03:03:13.960Z,80.32
2022-12-20T03:04:13.950Z,79.74
2022-12-20T03:05:13.951Z,0
2022-12-20T03:06:13.929Z,0
2022-12-20T03:07:13.906Z,81.67
2022-12-20T03:08:13.895Z,81.46
2022-12-20T03:09:13.887Z,0
2022-12-20T03:10:13.921Z,0
2022-12-20T03:11:13.914Z,81.25
2022-12-20T03:12:13.842Z,81.67
2022-12-20T03:13:13.866Z,82.14
2022-12-20T03:14:13.830Z,80.97
2022-12-20T03:15:13.826Z,80.21
2022-12-20T03:16:13.981Z,79.39
2022-12-20T03:17:13.844Z,80.25
2022-12-20T03:18:13.792Z,80.11
2022-12-20T03:19:13.768Z,79.7
2022-12-20T03:20:13.933Z,80.15
2022-12-20T03:21:13.783Z,80.46
2022-12-20T03:22:13.825Z,80.6
2022-12-20T03:23:13.726Z,81.11
2022-12-20T03:24:13.726Z,80.87
2022-12-20T03:46:18.718Z,78.88
2022-12-20T03:47:19.644Z,80.11
2022-12-20T03:48:18.443Z,80.39
2022-12-20T03:49:18.819Z,81.21
2022-12-20T03:50:18.273Z,80.87
2022-12-20T03:51:18.322Z,80.35
2022-12-20T03:52:18.269Z,80.7
2022-12-20T03:53:18.253Z,81.07
2022-12-20T03:54:18.226Z,80.49
2022-12-20T03:55:18.241Z,81.21
2022-12-20T03:56:18.222Z,81.52
2022-12-20T03:57:18.638Z,80.97
2022-12-20T03:58:18.252Z,81.07
2022-12-20T03:59:18.169Z,80.63
2022-12-20T04:00:18.224Z,79.91
2022-12-20T04:01:18.144Z,80.6
2022-12-20T04:02:18.174Z,81.52
2022-12-20T04:03:18.136Z,80.93
2022-12-20T04:04:18.117Z,80.35
2022-12-20T04:05:18.137Z,81.01
2022-12-20T04:06:18.107Z,81.62
2022-12-20T04:07:18.076Z,81.93
2022-12-20T04:08:18.094Z,81.93
2022-12-20T04:09:18.091Z,81.52
2022-12-20T04:10:18.043Z,81.79
2022-12-20T04:11:18.043Z,81.07
2022-12-20T04:12:18.050Z,81.01
2022-12-20T04:13:18.019Z,81.73
2022-12-20T04:14:18.026Z,82
2022-12-20T04:15:18.026Z,81.69
2022-12-20T04:16:18.011Z,81.48
2022-12-20T04:17:17.984Z,81.62
2022-12-20T04:18:17.968Z,81.59
2022-12-20T04:19:17.955Z,81.38
2022-12-20T04:20:17.973Z,81.59
2022-12-20T04:21:17.940Z,81.59
2022-12-20T04:22:17.939Z,81.55
2022-12-20T04:23:17.907Z,81.14
2022-12-20T04:24:17.901Z,81.07
2022-12-20T04:25:17.902Z,81.38
2022-12-20T04:26:17.898Z,81.45
2022-12-20T04:27:17.922Z,80.83
2022-12-20T04:28:17.855Z,80.93
2022-12-20T04:29:17.849Z,81.14
2022-12-20T04:30:17.855Z,81.14
2022-12-20T04:31:17.823Z,80.52
2022-12-20T04:32:17.807Z,80.52
2022-12-20T04:33:17.807Z,80.73
2022-12-20T04:34:17.804Z,81.14
2022-12-20T04:35:17.780Z,81
2022-12-20T04:36:17.765Z,80.49
2022-12-20T04:37:17.767Z,80.07
2022-12-20T04:38:17.755Z,80.52
2022-12-20T04:39:17.752Z,80.83
2022-12-20T04:40:17.725Z,81.79
2022-12-20T04:41:17.711Z,81.55
2022-12-20T04:42:17.711Z,81.34
2022-12-20T04:43:17.698Z,81.24
2022-12-20T04:44:17.689Z,81.1
2022-12-20T04:45:17.697Z,80.63
2022-12-20T04:46:17.671Z,81.14
2022-12-20T04:47:17.656Z,81.24
2022-12-20T04:48:17.664Z,81.76
2022-12-20T04:49:17.631Z,81.59
2022-12-20T04:50:17.620Z,82.57
2022-12-20T04:51:17.662Z,82.17
2022-12-20T04:52:17.610Z,82.06
2022-12-20T04:53:17.587Z,82.47
2022-12-20T04:54:17.609Z,82.41
2022-12-20T04:55:17.566Z,82.92
2022-12-20T04:56:17.558Z,82.62
2022-12-20T04:57:17.542Z,83.19
2022-12-20T04:58:17.563Z,83.19
2022-12-20T04:59:17.526Z,82.57
2022-12-20T05:00:17.506Z,82.27
2022-12-20T05:01:17.504Z,0
2022-12-20T05:02:17.500Z,82.92
2022-12-20T05:03:17.597Z,83.54
2022-12-20T05:04:17.472Z,83.54
2022-12-20T05:05:17.478Z,83.54
2022-12-20T05:06:17.534Z,83.81
2022-12-20T05:07:17.475Z,83.29
2022-12-20T05:08:17.482Z,83.09
2022-12-20T05:09:17.613Z,0
2022-12-20T05:10:17.701Z,0
2022-12-20T05:11:17.396Z,0
2022-12-20T05:12:17.422Z,83.85
2022-12-20T05:13:17.400Z,83.54
2022-12-20T05:14:17.378Z,83.64
2022-12-20T05:15:17.626Z,83.61
2022-12-20T05:16:17.342Z,82.68
2022-12-20T05:17:17.337Z,82.89
2022-12-20T05:18:17.340Z,82.37
2022-12-20T05:19:17.313Z,82.89
2022-12-20T05:20:17.296Z,82.54
2022-12-20T05:21:17.293Z,82.13
2022-12-20T05:22:17.279Z,81.71
2022-12-20T05:23:17.289Z,81.71
2022-12-20T05:24:17.271Z,82.47
2022-12-20T05:25:17.261Z,82.27
2022-12-20T05:26:17.244Z,82.82
2022-12-20T05:27:17.264Z,83.29
2022-12-20T05:28:17.228Z,82.68
2022-12-20T05:29:17.242Z,83.19
2022-12-20T05:30:18.043Z,82.99
2022-12-20T05:31:17.183Z,83.09
2022-12-20T05:32:17.176Z,82.75
2022-12-20T05:33:17.207Z,82.06
2022-12-20T05:34:17.167Z,82.64
2022-12-20T05:35:17.199Z,82.03
2022-12-20T05:36:17.127Z,82.57
2022-12-20T05:37:17.118Z,82.57
2022-12-20T05:38:17.213Z,82.99
2022-12-20T05:39:17.101Z,83.4
2022-12-20T05:40:17.098Z,83.29
2022-12-20T05:41:17.110Z,83.61
2022-12-20T05:42:17.069Z,83.5
2022-12-20T05:43:17.058Z,83.29
2022-12-20T05:44:17.044Z,83.26
2022-12-20T05:45:17.040Z,82.99
2022-12-20T05:46:17.036Z,83.44
2022-12-20T05:47:17.050Z,84.16
2022-12-20T05:48:17.003Z,0
2022-12-20T05:49:16.991Z,0
2022-12-20T05:50:17.013Z,84.47
2022-12-20T05:51:16.977Z,84.16
2022-12-20T05:52:16.959Z,0
2022-12-20T05:53:16.947Z,84.05
2022-12-20T05:54:16.943Z,84.05
2022-12-20T05:55:16.960Z,84.42
2022-12-20T05:56:16.972Z,84.22
2022-12-20T05:57:16.934Z,83.91
2022-12-20T05:58:16.921Z,84.22
2022-12-20T05:59:16.886Z,83.19
2022-12-20T06:00:17.049Z,0
2022-12-20T06:01:16.867Z,0
2022-12-20T06:02:16.858Z,0
2022-12-20T06:03:16.848Z,0
2022-12-20T06:04:16.859Z,0
2022-12-20T06:05:16.842Z,0
2022-12-20T06:06:16.816Z,0
2022-12-20T06:07:16.810Z,0
2022-12-20T06:08:16.790Z,0
2022-12-20T06:09:16.784Z,0
2022-12-20T06:10:16.771Z,0
2022-12-20T06:11:16.901Z,0
2022-12-20T06:12:17.784Z,0
2022-12-20T06:13:16.743Z,0
2022-12-20T06:14:16.729Z,0
2022-12-20T06:15:16.760Z,0
2022-12-20T06:16:16.718Z,0
2022-12-20T06:17:16.702Z,0
2022-12-20T06:18:16.711Z,0
2022-12-20T06:19:16.683Z,0
2022-12-20T06:20:16.677Z,86.11
2022-12-20T06:21:16.666Z,0
2022-12-20T06:22:16.648Z,0
2022-12-20T06:23:16.642Z,0
2022-12-20T06:24:16.632Z,0
2022-12-20T06:25:16.622Z,0
2022-12-20T06:26:16.611Z,0
2022-12-20T06:27:16.626Z,0
2022-12-20T06:28:16.598Z,0
2022-12-20T06:29:16.580Z,0
2022-12-20T06:30:16.792Z,0
2022-12-20T06:31:16.561Z,0
2022-12-20T06:32:16.544Z,0
2022-12-20T06:33:16.544Z,0
2022-12-20T06:34:16.539Z,0
2022-12-20T06:35:16.515Z,0
2022-12-20T06:36:16.602Z,0
2022-12-20T06:37:16.517Z,0
2022-12-20T06:38:16.512Z,0
2022-12-20T06:39:16.478Z,0
2022-12-20T06:40:16.457Z,0
2022-12-20T06:41:16.533Z,0
2022-12-20T06:42:16.451Z,0
2022-12-20T06:43:16.431Z,0
2022-12-20T06:44:16.443Z,0
2022-12-20T06:45:16.411Z,0
2022-12-20T06:46:16.450Z,0
2022-12-20T06:47:16.407Z,0
2022-12-20T06:48:16.401Z,0
2022-12-20T06:49:16.368Z,0
2022-12-20T06:50:16.390Z,0
2022-12-20T06:51:16.395Z,0
2022-12-20T06:52:16.335Z,86.77
2022-12-20T06:53:16.342Z,86.42
2022-12-20T06:54:16.344Z,86.21
2022-12-20T06:55:16.313Z,0
2022-12-20T06:56:16.348Z,0
2022-12-20T06:57:16.426Z,86.25
2022-12-20T06:58:16.284Z,0
2022-12-20T06:59:16.304Z,0
2022-12-20T07:00:16.253Z,0
2022-12-20T07:01:16.630Z,0
2022-12-20T07:02:16.232Z,0
2022-12-20T07:03:16.244Z,0
2022-12-20T07:04:16.217Z,0
2022-12-20T07:05:16.243Z,0
2022-12-20T07:06:16.237Z,0
2022-12-20T07:07:16.192Z,0
2022-12-20T07:08:16.234Z,0
2022-12-20T07:09:16.162Z,0
2022-12-20T07:10:16.148Z,0
2022-12-20T07:11:16.150Z,0
2022-12-20T07:12:16.165Z,0
2022-12-20T07:13:16.164Z,0
2022-12-20T07:14:16.106Z,0
2022-12-20T07:15:16.103Z,0
2022-12-20T07:16:16.101Z,0
2022-12-20T07:17:16.085Z,0
2022-12-20T07:18:16.070Z,0
2022-12-20T07:19:16.064Z,0
2022-12-20T07:20:16.052Z,0
2022-12-20T07:21:16.034Z,0
2022-12-20T07:22:16.060Z,0
2022-12-20T07:23:16.017Z,0
2022-12-20T07:24:16.007Z,0
2022-12-20T07:25:16.004Z,0
2022-12-20T07:26:15.989Z,0
2022-12-20T07:27:15.986Z,0
2022-12-20T07:28:15.981Z,0
2022-12-20T07:29:15.990Z,0
2022-12-20T07:30:15.945Z,0
2022-12-20T07:31:15.973Z,0
2022-12-20T07:32:15.939Z,0
2022-12-20T07:33:15.974Z,0
2022-12-20T07:34:15.965Z,0
2022-12-20T07:35:15.975Z,0
2022-12-20T07:36:16.020Z,0
2022-12-20T07:37:15.871Z,0
2022-12-20T07:38:15.864Z,0
2022-12-20T07:39:15.866Z,0
2022-12-20T07:40:15.850Z,0
2022-12-20T07:41:15.845Z,0
2022-12-20T07:42:15.825Z,0
2022-12-20T07:43:15.829Z,0
2022-12-20T07:44:15.864Z,0
2022-12-20T07:45:15.795Z,0
2022-12-20T07:46:15.855Z,0
2022-12-20T07:47:15.799Z,0
2022-12-20T07:48:15.775Z,0
2022-12-20T07:49:15.847Z,0
2022-12-20T07:50:15.843Z,0
2022-12-20T07:51:15.805Z,0
2022-12-20T07:52:15.798Z,0
2022-12-20T07:53:15.747Z,0
2022-12-20T07:54:15.766Z,0
2022-12-20T07:55:15.791Z,0
2022-12-20T07:56:15.690Z,0
2022-12-20T07:57:15.678Z,0
2022-12-20T07:58:15.741Z,0
2022-12-20T07:59:15.659Z,0
2022-12-20T08:00:15.637Z,0
2022-12-20T08:01:15.623Z,0
2022-12-20T08:02:15.739Z,0
2022-12-20T08:03:15.620Z,0
2022-12-20T08:04:15.631Z,0
2022-12-20T08:05:15.673Z,0
2022-12-20T08:06:15.579Z,0
2022-12-20T08:07:15.561Z,0
2022-12-20T08:08:15.763Z,0
2022-12-20T08:09:15.775Z,0
2022-12-20T08:10:15.556Z,0
2022-12-20T08:11:15.517Z,0
2022-12-20T08:12:15.510Z,0
2022-12-20T08:13:15.502Z,0
2022-12-20T08:14:15.482Z,0
2022-12-20T08:15:15.481Z,0
2022-12-20T08:16:15.544Z,0
2022-12-20T08:17:16.470Z,0
2022-12-20T08:18:15.444Z,0
2022-12-20T08:19:15.645Z,0
2022-12-20T08:20:15.438Z,0
2022-12-20T08:21:15.419Z,0
2022-12-20T08:22:15.423Z,0
2022-12-20T08:23:15.390Z,0
2022-12-20T08:24:15.421Z,0
2022-12-20T08:25:15.379Z,0
2022-12-20T08:26:15.367Z,0
2022-12-20T08:27:15.368Z,0
2022-12-20T08:28:15.552Z,0
2022-12-20T08:29:15.336Z,0
2022-12-20T08:30:15.336Z,0
2022-12-20T08:31:15.322Z,0
2022-12-20T08:32:15.402Z,0
2022-12-20T08:33:15.307Z,0
2022-12-20T08:34:15.290Z,0
2022-12-20T08:35:15.309Z,0
2022-12-20T08:36:15.264Z,0
2022-12-20T08:37:15.299Z,0
2022-12-20T08:38:15.276Z,0
2022-12-20T08:39:15.341Z,0
2022-12-20T08:40:15.234Z,0
2022-12-20T08:41:15.214Z,0
2022-12-20T08:42:15.226Z,0
2022-12-20T08:43:15.203Z,0
2022-12-20T08:44:15.181Z,0
2022-12-20T08:45:15.175Z,0
2022-12-20T08:46:15.161Z,0
2022-12-20T08:47:15.177Z,0
2022-12-20T08:48:15.136Z,0
2022-12-20T08:49:15.119Z,0
2022-12-20T08:50:15.132Z,0
2022-12-20T08:51:15.120Z,0
2022-12-20T08:52:15.091Z,0
2022-12-20T08:53:15.094Z,0
2022-12-20T08:54:15.068Z,0
2022-12-20T08:55:15.078Z,0
2022-12-20T08:56:15.075Z,0
2022-12-20T08:57:15.055Z,0
2022-12-20T08:58:15.031Z,0
2022-12-20T08:59:15.032Z,0
2022-12-20T09:00:15.013Z,0
2022-12-20T09:01:15.018Z,0
2022-12-20T09:02:15.018Z,0
2022-12-20T09:03:15.069Z,0
2022-12-20T09:04:14.967Z,0
2022-12-20T09:05:14.959Z,0
2022-12-20T09:06:14.944Z,0
2022-12-20T09:07:14.933Z,0
2022-12-20T09:08:14.958Z,0
2022-12-20T09:09:14.965Z,0
2022-12-20T09:10:14.926Z,0
2022-12-20T09:11:14.912Z,0
2022-12-20T09:12:14.890Z,0
2022-12-20T09:13:14.895Z,0
2022-12-20T09:14:14.859Z,0
2022-12-20T09:15:14.906Z,0
2022-12-20T09:16:14.839Z,0
2022-12-20T09:17:14.839Z,0
2022-12-20T09:18:14.839Z,0
2022-12-20T09:19:14.806Z,0
2022-12-20T09:20:14.819Z,0
2022-12-20T09:21:14.790Z,0
2022-12-20T09:22:14.779Z,0
2022-12-20T09:23:14.811Z,0
2022-12-20T09:24:14.787Z,0
2022-12-20T09:25:14.747Z,0
2022-12-20T09:26:14.746Z,0
2022-12-20T09:27:14.767Z,0
2022-12-20T09:28:14.713Z,0
2022-12-20T09:29:14.709Z,0
2022-12-20T09:30:14.699Z,0
2022-12-20T09:31:14.709Z,0
2022-12-20T09:32:14.692Z,0
2022-12-20T09:33:14.708Z,0
2022-12-20T09:34:14.685Z,0
2022-12-20T09:35:14.646Z,0
2022-12-20T09:36:14.655Z,0
2022-12-20T09:37:14.627Z,0
2022-12-20T09:38:14.621Z,0
2022-12-20T09:39:14.612Z,0
2022-12-20T09:40:14.606Z,0
2022-12-20T09:41:14.584Z,0
2022-12-20T09:42:14.570Z,0
2022-12-20T09:43:14.576Z,0
2022-12-20T09:44:14.599Z,0
2022-12-20T09:45:14.560Z,0
2022-12-20T09:46:14.532Z,0
2022-12-20T09:47:15.531Z,0
2022-12-20T09:48:14.515Z,0
2022-12-20T09:49:14.494Z,0
2022-12-20T09:50:14.492Z,0
2022-12-20T09:51:14.501Z,0
2022-12-20T09:52:14.477Z,0
2022-12-20T09:53:14.482Z,0
2022-12-20T09:54:14.457Z,0
2022-12-20T09:55:14.519Z,0
2022-12-20T09:56:14.439Z,0
2022-12-20T09:57:14.418Z,0
2022-12-20T09:58:14.403Z,0
2022-12-20T09:59:14.387Z,0
2022-12-20T10:00:24.287Z,0
2022-12-20T10:01:14.369Z,80.91
2022-12-20T10:02:14.356Z,0
2022-12-20T10:03:14.358Z,0
2022-12-20T10:04:14.339Z,0
2022-12-20T10:05:14.327Z,0
2022-12-20T10:06:14.316Z,80.09
2022-12-20T10:07:14.308Z,79.89
2022-12-20T10:08:14.329Z,79.54
2022-12-20T10:09:14.326Z,0
2022-12-20T10:10:14.278Z,0
2022-12-20T10:11:14.266Z,0
2022-12-20T10:12:14.252Z,0
2022-12-20T10:13:14.261Z,0
2022-12-20T10:14:14.242Z,0
2022-12-20T10:15:14.218Z,0
2022-12-20T10:16:14.214Z,0
2022-12-20T10:17:14.200Z,0
2022-12-20T10:18:14.189Z,0
2022-12-20T10:19:14.190Z,0
2022-12-20T10:20:14.170Z,0
2022-12-20T10:21:14.159Z,0
2022-12-20T10:22:14.149Z,0
2022-12-20T10:23:14.157Z,0
2022-12-20T10:24:14.123Z,0
2022-12-20T10:25:14.119Z,0
2022-12-20T10:26:14.105Z,0
2022-12-20T10:27:14.099Z,0
2022-12-20T10:28:14.087Z,0
2022-12-20T10:29:14.075Z,0
2022-12-20T10:30:14.064Z,0
2022-12-20T10:31:14.135Z,0
2022-12-20T10:32:14.068Z,0
2022-12-20T10:33:14.036Z,0
2022-12-20T10:34:14.028Z,0
2022-12-20T10:35:14.027Z,0
2022-12-20T10:36:14.017Z,0
2022-12-20T10:37:14.024Z,0
2022-12-20T10:38:14.018Z,0
2022-12-20T10:39:13.979Z,0
2022-12-20T10:40:13.959Z,0
2022-12-20T10:41:13.973Z,0
2022-12-20T10:42:13.946Z,0
2022-12-20T10:43:13.938Z,0
2022-12-20T10:44:13.950Z,78.24
2022-12-20T10:45:13.921Z,78
2022-12-20T10:46:13.913Z,77.39
2022-12-20T10:47:13.884Z,77.15
2022-12-20T10:48:13.888Z,76.88
2022-12-20T10:49:13.875Z,77.29
2022-12-20T10:50:13.878Z,76.74
2022-12-20T10:51:13.842Z,76.53
2022-12-20T10:52:13.853Z,76.43
2022-12-20T10:53:21.477Z,76.33
2022-12-20T10:54:13.809Z,0
2022-12-20T10:55:13.799Z,76.98
2022-12-20T10:56:13.785Z,77.7
2022-12-20T10:57:13.774Z,77.59
2022-12-20T10:58:13.773Z,77.45
2022-12-20T10:59:13.800Z,76.64
2022-12-20T14:53:04.686Z,79.05
2022-12-20T17:05:32.814Z,0
2022-12-20T17:06:33.805Z,85.41
2022-12-20T17:20:55.507Z,83.78
2022-12-20T17:22:55.483Z,84.49
2022-12-20T17:23:55.535Z,84.49
2022-12-20T17:24:55.556Z,84.59
2022-12-20T17:25:56.399Z,84.28
2022-12-20T17:26:55.357Z,84.83
2022-12-20T17:27:55.373Z,85.24
2022-12-20T17:28:55.337Z,85.75
2022-12-20T17:29:55.323Z,85.35
2022-12-20T17:30:55.312Z,85.45
2022-12-20T17:31:55.313Z,85.38
2022-12-20T17:32:55.320Z,85.89
2022-12-20T17:33:55.283Z,0
2022-12-20T17:34:55.278Z,0
2022-12-20T17:35:55.273Z,86
2022-12-20T17:36:55.251Z,85.73
2022-12-20T17:37:55.242Z,86.44
2022-12-20T17:38:55.252Z,86.65
2022-12-20T17:39:55.233Z,86.1
2022-12-20T17:40:55.223Z,85.63
